sensor_id;sensor_type;location;lat;lon;timestamp;pressure;altitude;pressure_sealevel;temperature;humidity
57574;BME280;43409;48.858;21.906;2022-07-12T00:00:41;98820.50;;;23.65;36.61
57574;BME280;43409;48.858;21.906;2022-07-12T00:03:06;98828.22;;;23.62;36.47
57574;BME280;43409;48.858;21.906;2022-07-12T00:05:32;98821.03;;;23.67;36.46
57574;BME280;43409;48.858;21.906;2022-07-12T00:07:57;98821.28;;;23.60;36.49
57574;BME280;43409;48.858;21.906;2022-07-12T00:10:23;98826.38;;;23.67;36.33
57574;BME280;43409;48.858;21.906;2022-07-12T00:12:48;98821.53;;;23.59;36.68
57574;BME280;43409;48.858;21.906;2022-07-12T00:15:13;98817.25;;;23.63;36.62
57574;BME280;43409;48.858;21.906;2022-07-12T00:17:41;98826.66;;;23.66;36.40
57574;BME280;43409;48.858;21.906;2022-07-12T00:20:07;98820.44;;;23.60;36.57
57574;BME280;43409;48.858;21.906;2022-07-12T00:22:33;98823.56;;;23.41;37.07
57574;BME280;43409;48.858;21.906;2022-07-12T00:24:58;98820.38;;;23.45;36.83
57574;BME280;43409;48.858;21.906;2022-07-12T00:27:23;98825.19;;;23.48;36.96
57574;BME280;43409;48.858;21.906;2022-07-12T00:29:49;98809.91;;;23.43;36.82
57574;BME280;43409;48.858;21.906;2022-07-12T00:32:14;98817.69;;;23.45;36.82
57574;BME280;43409;48.858;21.906;2022-07-12T00:34:40;98818.22;;;23.41;37.10
57574;BME280;43409;48.858;21.906;2022-07-12T00:37:05;98811.00;;;23.42;37.01
57574;BME280;43409;48.858;21.906;2022-07-12T00:39:31;98816.31;;;23.37;37.11
57574;BME280;43409;48.858;21.906;2022-07-12T00:41:56;98813.13;;;23.40;37.13
57574;BME280;43409;48.858;21.906;2022-07-12T00:44:21;98825.19;;;23.42;36.87
57574;BME280;43409;48.858;21.906;2022-07-12T00:46:47;98823.03;;;23.45;37.00
57574;BME280;43409;48.858;21.906;2022-07-12T00:49:13;98826.88;;;23.59;36.73
57574;BME280;43409;48.858;21.906;2022-07-12T00:51:42;98825.00;;;23.54;37.21
57574;BME280;43409;48.858;21.906;2022-07-12T00:54:08;98817.75;;;23.50;37.02
57574;BME280;43409;48.858;21.906;2022-07-12T00:56:33;98818.78;;;23.49;37.22
57574;BME280;43409;48.858;21.906;2022-07-12T00:58:59;98822.00;;;23.46;37.33
57574;BME280;43409;48.858;21.906;2022-07-12T01:01:25;98819.31;;;23.51;37.36
57574;BME280;43409;48.858;21.906;2022-07-12T01:03:50;98818.00;;;23.53;37.30
57574;BME280;43409;48.858;21.906;2022-07-12T01:06:18;98815.66;;;23.62;37.16
57574;BME280;43409;48.858;21.906;2022-07-12T01:08:45;98813.72;;;23.52;37.23
57574;BME280;43409;48.858;21.906;2022-07-12T01:11:10;98820.59;;;23.38;37.72
57574;BME280;43409;48.858;21.906;2022-07-12T01:13:36;98821.41;;;23.38;37.48
57574;BME280;43409;48.858;21.906;2022-07-12T01:16:04;98820.44;;;23.55;37.40
57574;BME280;43409;48.858;21.906;2022-07-12T01:18:31;98817.78;;;23.60;37.55
57574;BME280;43409;48.858;21.906;2022-07-12T01:21:03;98814.56;;;23.58;37.47
57574;BME280;43409;48.858;21.906;2022-07-12T01:23:29;98818.81;;;23.54;37.47
57574;BME280;43409;48.858;21.906;2022-07-12T01:25:54;98822.84;;;23.56;37.64
57574;BME280;43409;48.858;21.906;2022-07-12T01:28:20;98816.69;;;23.56;37.59
57574;BME280;43409;48.858;21.906;2022-07-12T01:30:47;98816.19;;;23.59;37.68
57574;BME280;43409;48.858;21.906;2022-07-12T01:33:12;98819.13;;;23.57;37.47
57574;BME280;43409;48.858;21.906;2022-07-12T01:35:39;98818.28;;;23.52;37.79
57574;BME280;43409;48.858;21.906;2022-07-12T01:38:05;98815.88;;;23.55;37.81
57574;BME280;43409;48.858;21.906;2022-07-12T01:40:30;98812.41;;;23.60;37.58
57574;BME280;43409;48.858;21.906;2022-07-12T01:42:56;98811.34;;;23.61;37.55
57574;BME280;43409;48.858;21.906;2022-07-12T01:45:22;98809.47;;;23.56;37.72
57574;BME280;43409;48.858;21.906;2022-07-12T01:47:47;98811.81;;;23.42;37.79
57574;BME280;43409;48.858;21.906;2022-07-12T01:50:15;98812.31;;;23.39;38.16
57574;BME280;43409;48.858;21.906;2022-07-12T01:52:41;98807.50;;;23.41;38.15
57574;BME280;43409;48.858;21.906;2022-07-12T01:55:08;98812.38;;;23.50;37.92
57574;BME280;43409;48.858;21.906;2022-07-12T01:57:46;98808.66;;;23.56;37.97
57574;BME280;43409;48.858;21.906;2022-07-12T02:00:12;98812.66;;;23.53;38.04
57574;BME280;43409;48.858;21.906;2022-07-12T02:02:37;98801.13;;;23.48;38.01
57574;BME280;43409;48.858;21.906;2022-07-12T02:05:03;98807.06;;;23.55;38.04
57574;BME280;43409;48.858;21.906;2022-07-12T02:07:30;98811.88;;;23.53;37.90
57574;BME280;43409;48.858;21.906;2022-07-12T02:09:56;98812.13;;;23.56;37.77
57574;BME280;43409;48.858;21.906;2022-07-12T02:12:23;98817.75;;;23.50;37.79
57574;BME280;43409;48.858;21.906;2022-07-12T02:14:49;98821.72;;;23.42;38.00
57574;BME280;43409;48.858;21.906;2022-07-12T02:17:15;98814.47;;;23.42;37.84
57574;BME280;43409;48.858;21.906;2022-07-12T02:19:41;98818.25;;;23.47;38.02
57574;BME280;43409;48.858;21.906;2022-07-12T02:22:06;98822.00;;;23.46;38.05
57574;BME280;43409;48.858;21.906;2022-07-12T02:24:31;98817.16;;;23.48;38.14
57574;BME280;43409;48.858;21.906;2022-07-12T02:26:57;98819.28;;;23.40;38.51
57574;BME280;43409;48.858;21.906;2022-07-12T02:29:22;98818.19;;;23.36;38.47
57574;BME280;43409;48.858;21.906;2022-07-12T02:31:48;98821.72;;;23.47;38.45
57574;BME280;43409;48.858;21.906;2022-07-12T02:34:14;98813.69;;;23.47;38.55
57574;BME280;43409;48.858;21.906;2022-07-12T02:36:39;98814.38;;;23.27;39.06
57574;BME280;43409;48.858;21.906;2022-07-12T02:39:04;98818.19;;;23.36;38.83
57574;BME280;43409;48.858;21.906;2022-07-12T02:41:33;98820.88;;;23.41;38.71
57574;BME280;43409;48.858;21.906;2022-07-12T02:43:59;98813.94;;;23.40;38.79
57574;BME280;43409;48.858;21.906;2022-07-12T02:46:24;98809.91;;;23.43;38.78
57574;BME280;43409;48.858;21.906;2022-07-12T02:48:51;98809.97;;;23.48;38.77
57574;BME280;43409;48.858;21.906;2022-07-12T02:51:17;98808.34;;;23.47;38.65
57574;BME280;43409;48.858;21.906;2022-07-12T02:53:42;98817.41;;;23.41;38.88
57574;BME280;43409;48.858;21.906;2022-07-12T02:56:08;98814.75;;;23.41;38.70
57574;BME280;43409;48.858;21.906;2022-07-12T02:58:34;98815.59;;;23.47;38.47
57574;BME280;43409;48.858;21.906;2022-07-12T03:00:59;98814.75;;;23.41;38.60
57574;BME280;43409;48.858;21.906;2022-07-12T03:03:25;98816.03;;;23.33;38.79
57574;BME280;43409;48.858;21.906;2022-07-12T03:05:50;98814.38;;;23.27;38.51
57574;BME280;43409;48.858;21.906;2022-07-12T03:08:16;98812.00;;;23.31;38.48
57574;BME280;43409;48.858;21.906;2022-07-12T03:10:41;98811.16;;;23.25;38.70
57574;BME280;43409;48.858;21.906;2022-07-12T03:13:07;98812.19;;;23.19;38.40
57574;BME280;43409;48.858;21.906;2022-07-12T03:15:33;98814.66;;;23.26;38.51
57574;BME280;43409;48.858;21.906;2022-07-12T03:17:59;98817.03;;;23.22;38.61
57574;BME280;43409;48.858;21.906;2022-07-12T03:20:26;98807.41;;;23.26;38.31
57574;BME280;43409;48.858;21.906;2022-07-12T03:22:52;98814.38;;;23.22;38.54
57574;BME280;43409;48.858;21.906;2022-07-12T03:25:22;98816.53;;;23.25;38.43
57574;BME280;43409;48.858;21.906;2022-07-12T03:27:48;98812.84;;;23.36;38.20
57574;BME280;43409;48.858;21.906;2022-07-12T03:30:14;98827.78;;;23.32;38.19
57574;BME280;43409;48.858;21.906;2022-07-12T03:32:40;98822.94;;;23.24;38.31
57574;BME280;43409;48.858;21.906;2022-07-12T03:35:06;98818.19;;;23.36;38.18
57574;BME280;43409;48.858;21.906;2022-07-12T03:40:07;98821.31;;;23.23;38.25
57574;BME280;43409;48.858;21.906;2022-07-12T03:42:33;98822.94;;;23.24;38.26
57574;BME280;43409;48.858;21.906;2022-07-12T03:44:58;98814.06;;;23.18;38.41
57574;BME280;43409;48.858;21.906;2022-07-12T03:47:23;98820.75;;;23.16;38.36
57574;BME280;43409;48.858;21.906;2022-07-12T03:49:49;98817.28;;;23.20;38.47
57574;BME280;43409;48.858;21.906;2022-07-12T03:52:14;98825.06;;;23.22;38.34
57574;BME280;43409;48.858;21.906;2022-07-12T03:54:39;98821.88;;;23.25;38.32
57574;BME280;43409;48.858;21.906;2022-07-12T03:57:05;98821.31;;;23.23;38.50
57574;BME280;43409;48.858;21.906;2022-07-12T03:59:40;98817.03;;;23.70;37.66
57574;BME280;43409;48.858;21.906;2022-07-12T04:02:06;98821.31;;;23.71;37.57
57574;BME280;43409;48.858;21.906;2022-07-12T04:04:31;98816.88;;;23.92;37.21
57574;BME280;43409;48.858;21.906;2022-07-12T04:06:57;98820.69;;;24.17;36.75
57574;BME280;43409;48.858;21.906;2022-07-12T04:09:22;98814.03;;;23.61;37.51
57574;BME280;43409;48.858;21.906;2022-07-12T04:11:48;98810.50;;;23.45;37.90
57574;BME280;43409;48.858;21.906;2022-07-12T04:14:14;98809.91;;;23.43;37.95
57574;BME280;43409;48.858;21.906;2022-07-12T04:16:39;98806.72;;;23.46;38.07
57574;BME280;43409;48.858;21.906;2022-07-12T04:19:05;98814.50;;;23.48;38.06
57574;BME280;43409;48.858;21.906;2022-07-12T04:21:33;98808.22;;;23.80;37.50
57574;BME280;43409;48.858;21.906;2022-07-12T04:23:58;98807.22;;;23.91;37.17
57574;BME280;43409;48.858;21.906;2022-07-12T04:26:24;98805.03;;;23.83;37.46
57574;BME280;43409;48.858;21.906;2022-07-12T04:28:49;98815.50;;;23.89;37.46
57574;BME280;43409;48.858;21.906;2022-07-12T04:31:14;98809.38;;;23.94;37.24
57574;BME280;43409;48.858;21.906;2022-07-12T04:33:40;98810.94;;;23.85;37.31
57574;BME280;43409;48.858;21.906;2022-07-12T04:36:05;98811.97;;;23.78;37.58
57574;BME280;43409;48.858;21.906;2022-07-12T04:38:31;98815.72;;;23.77;37.62
57574;BME280;43409;48.858;21.906;2022-07-12T04:40:56;98812.22;;;23.77;37.61
57574;BME280;43409;48.858;21.906;2022-07-12T04:43:22;98821.56;;;23.69;37.74
57574;BME280;43409;48.858;21.906;2022-07-12T04:45:49;98825.34;;;23.73;37.70
57574;BME280;43409;48.858;21.906;2022-07-12T04:48:15;98818.88;;;23.69;37.75
57574;BME280;43409;48.858;21.906;2022-07-12T04:50:41;98811.94;;;23.68;37.73
57574;BME280;43409;48.858;21.906;2022-07-12T04:53:07;98814.03;;;23.61;37.87
57574;BME280;43409;48.858;21.906;2022-07-12T04:55:32;98807.59;;;23.57;37.76
57574;BME280;43409;48.858;21.906;2022-07-12T04:57:57;98820.72;;;23.58;38.00
57574;BME280;43409;48.858;21.906;2022-07-12T05:00:23;98817.25;;;23.63;38.03
57574;BME280;43409;48.858;21.906;2022-07-12T05:02:48;98814.63;;;23.68;37.85
57574;BME280;43409;48.858;21.906;2022-07-12T05:05:14;98815.66;;;23.67;37.90
57574;BME280;43409;48.858;21.906;2022-07-12T05:07:40;98820.53;;;23.75;38.04
57574;BME280;43409;48.858;21.906;2022-07-12T05:10:07;98812.22;;;23.77;37.77
57574;BME280;43409;48.858;21.906;2022-07-12T05:12:34;98822.69;;;23.78;38.06
57574;BME280;43409;48.858;21.906;2022-07-12T05:15:00;98831.53;;;23.79;38.00
57574;BME280;43409;48.858;21.906;2022-07-12T05:17:25;98819.97;;;23.68;38.13
57574;BME280;43409;48.858;21.906;2022-07-12T05:19:50;98822.38;;;23.70;38.40
57574;BME280;43409;48.858;21.906;2022-07-12T05:22:16;98830.69;;;23.68;38.83
57574;BME280;43409;48.858;21.906;2022-07-12T05:24:41;98819.66;;;23.65;38.88
57574;BME280;43409;48.858;21.906;2022-07-12T05:27:06;98816.50;;;23.73;38.81
57574;BME280;43409;48.858;21.906;2022-07-12T05:29:33;98815.69;;;23.72;38.85
57574;BME280;43409;48.858;21.906;2022-07-12T05:31:59;98823.69;;;23.67;39.07
57574;BME280;43409;48.858;21.906;2022-07-12T05:34:26;98827.41;;;23.61;39.22
57574;BME280;43409;48.858;21.906;2022-07-12T05:36:51;98834.13;;;23.64;38.84
57574;BME280;43409;48.858;21.906;2022-07-12T05:39:17;98833.94;;;23.81;38.82
57574;BME280;43409;48.858;21.906;2022-07-12T05:41:42;98833.06;;;23.65;39.00
57574;BME280;43409;48.858;21.906;2022-07-12T05:44:08;98833.38;;;23.78;38.98
57574;BME280;43409;48.858;21.906;2022-07-12T05:46:33;98829.06;;;23.72;39.30
57574;BME280;43409;48.858;21.906;2022-07-12T05:48:59;98836.41;;;23.87;38.93
57574;BME280;43409;48.858;21.906;2022-07-12T05:51:24;98842.78;;;23.81;39.13
57574;BME280;43409;48.858;21.906;2022-07-12T05:54:08;98837.69;;;23.80;39.00
57574;BME280;43409;48.858;21.906;2022-07-12T05:56:35;98839.09;;;23.87;39.15
57574;BME280;43409;48.858;21.906;2022-07-12T05:59:01;98842.59;;;23.93;39.10
57574;BME280;43409;48.858;21.906;2022-07-12T06:01:26;98841.00;;;23.97;39.09
57574;BME280;43409;48.858;21.906;2022-07-12T06:03:51;98842.06;;;23.96;38.99
57574;BME280;43409;48.858;21.906;2022-07-12T06:06:17;98848.00;;;24.08;38.76
57574;BME280;43409;48.858;21.906;2022-07-12T06:08:42;98859.53;;;24.14;38.92
57574;BME280;43409;48.858;21.906;2022-07-12T06:11:07;98863.84;;;24.20;38.65
57574;BME280;43409;48.858;21.906;2022-07-12T06:13:33;98855.00;;;24.25;38.79
57574;BME280;43409;48.858;21.906;2022-07-12T06:15:59;98857.41;;;24.16;39.15
57574;BME280;43409;48.858;21.906;2022-07-12T06:18:24;98854.47;;;24.23;38.92
57574;BME280;43409;48.858;21.906;2022-07-12T06:20:56;98858.25;;;24.27;39.04
57574;BME280;43409;48.858;21.906;2022-07-12T06:23:21;98857.72;;;24.30;39.18
57574;BME280;43409;48.858;21.906;2022-07-12T06:25:46;98864.94;;;24.24;39.40
57574;BME280;43409;48.858;21.906;2022-07-12T06:28:12;98859.31;;;24.31;39.27
57574;BME280;43409;48.858;21.906;2022-07-12T06:30:38;98864.19;;;24.39;39.38
57574;BME280;43409;48.858;21.906;2022-07-12T06:33:03;98869.81;;;24.38;39.43
57574;BME280;43409;48.858;21.906;2022-07-12T06:35:28;98868.19;;;24.37;39.79
57574;BME280;43409;48.858;21.906;2022-07-12T06:37:54;98870.03;;;24.31;39.94
57574;BME280;43409;48.858;21.906;2022-07-12T06:40:20;98862.81;;;24.37;40.20
57574;BME280;43409;48.858;21.906;2022-07-12T06:42:45;98868.97;;;24.37;40.02
57574;BME280;43409;48.858;21.906;2022-07-12T06:45:10;98860.41;;;24.35;40.02
57574;BME280;43409;48.858;21.906;2022-07-12T06:47:36;98872.75;;;24.36;40.28
57574;BME280;43409;48.858;21.906;2022-07-12T06:50:02;98874.91;;;24.39;39.89
57574;BME280;43409;48.858;21.906;2022-07-12T06:52:28;98876.50;;;24.40;40.21
57574;BME280;43409;48.858;21.906;2022-07-12T06:54:55;98880.78;;;24.36;40.10
57574;BME280;43409;48.858;21.906;2022-07-12T06:57:21;98881.88;;;24.45;40.23
57574;BME280;43409;48.858;21.906;2022-07-12T06:59:46;98878.66;;;24.43;40.33
57574;BME280;43409;48.858;21.906;2022-07-12T07:02:13;98886.69;;;24.38;40.38
57574;BME280;43409;48.858;21.906;2022-07-12T07:04:38;98878.94;;;24.47;40.12
57574;BME280;43409;48.858;21.906;2022-07-12T07:07:04;98882.41;;;24.53;39.96
57574;BME280;43409;48.858;21.906;2022-07-12T07:09:29;98884.03;;;24.54;40.26
57574;BME280;43409;48.858;21.906;2022-07-12T07:11:54;98883.78;;;24.55;40.18
57574;BME280;43409;48.858;21.906;2022-07-12T07:14:20;98873.84;;;24.51;40.30
57574;BME280;43409;48.858;21.906;2022-07-12T07:16:45;98878.94;;;24.47;40.65
57574;BME280;43409;48.858;21.906;2022-07-12T07:19:11;98876.53;;;24.51;40.48
57574;BME280;43409;48.858;21.906;2022-07-12T07:21:37;98869.00;;;24.47;40.62
57574;BME280;43409;48.858;21.906;2022-07-12T07:24:02;98860.72;;;24.49;40.73
57574;BME280;43409;48.858;21.906;2022-07-12T07:26:29;98861.56;;;24.60;40.53
57574;BME280;43409;48.858;21.906;2022-07-12T07:28:55;98859.69;;;24.60;40.44
57574;BME280;43409;48.858;21.906;2022-07-12T07:31:39;98861.28;;;24.56;40.61
57574;BME280;43409;48.858;21.906;2022-07-12T07:34:05;98859.66;;;24.55;40.84
57574;BME280;43409;48.858;21.906;2022-07-12T07:36:31;98854.28;;;24.55;40.61
57574;BME280;43409;48.858;21.906;2022-07-12T07:38:57;98860.19;;;24.52;40.86
57574;BME280;43409;48.858;21.906;2022-07-12T07:41:23;98858.28;;;24.53;40.94
57574;BME280;43409;48.858;21.906;2022-07-12T07:43:48;98859.16;;;24.58;40.75
57574;BME280;43409;48.858;21.906;2022-07-12T07:46:14;98866.94;;;24.60;40.49
57574;BME280;43409;48.858;21.906;2022-07-12T07:48:39;98872.25;;;24.55;40.81
57574;BME280;43409;48.858;21.906;2022-07-12T07:51:05;98868.53;;;24.61;40.99
57574;BME280;43409;48.858;21.906;2022-07-12T07:53:30;98870.13;;;24.62;40.65
57574;BME280;43409;48.858;21.906;2022-07-12T07:55:56;98874.97;;;24.65;40.19
57574;BME280;43409;48.858;21.906;2022-07-12T07:58:23;98879.56;;;24.75;40.98
57574;BME280;43409;48.858;21.906;2022-07-12T08:00:52;98870.69;;;24.90;41.18
57574;BME280;43409;48.858;21.906;2022-07-12T08:03:19;98876.88;;;24.95;41.35
57574;BME280;43409;48.858;21.906;2022-07-12T08:05:44;98879.81;;;24.99;40.87
57574;BME280;43409;48.858;21.906;2022-07-12T08:08:10;98869.38;;;25.02;41.38
57574;BME280;43409;48.858;21.906;2022-07-12T08:10:35;98868.28;;;25.03;40.90
57574;BME280;43409;48.858;21.906;2022-07-12T08:13:00;98863.19;;;25.02;41.10
57574;BME280;43409;48.858;21.906;2022-07-12T08:15:26;98865.91;;;25.07;41.15
57574;BME280;43409;48.858;21.906;2022-07-12T08:17:51;98860.50;;;25.02;41.30
57574;BME280;43409;48.858;21.906;2022-07-12T08:20:17;98855.97;;;25.02;41.16
57574;BME280;43409;48.858;21.906;2022-07-12T08:22:44;98857.28;;;25.05;40.82
57574;BME280;43409;48.858;21.906;2022-07-12T08:25:11;98854.06;;;25.03;40.67
57574;BME280;43409;48.858;21.906;2022-07-12T08:27:36;98854.63;;;25.00;40.74
57574;BME280;43409;48.858;21.906;2022-07-12T08:30:02;98849.78;;;24.97;41.09
57574;BME280;43409;48.858;21.906;2022-07-12T08:32:28;98863.47;;;24.95;40.51
57574;BME280;43409;48.858;21.906;2022-07-12T08:34:54;98853.00;;;24.94;40.62
57574;BME280;43409;48.858;21.906;2022-07-12T08:37:19;98853.53;;;24.96;40.42
57574;BME280;43409;48.858;21.906;2022-07-12T08:39:44;98853.53;;;25.06;39.90
57574;BME280;43409;48.858;21.906;2022-07-12T08:42:14;98849.50;;;25.14;39.96
57574;BME280;43409;48.858;21.906;2022-07-12T08:44:40;98846.31;;;25.12;39.68
57574;BME280;43409;48.858;21.906;2022-07-12T08:47:07;98843.88;;;25.05;39.51
57574;BME280;43409;48.858;21.906;2022-07-12T08:49:32;98841.19;;;25.05;38.95
57574;BME280;43409;48.858;21.906;2022-07-12T08:51:58;98833.69;;;25.07;38.73
57574;BME280;43409;48.858;21.906;2022-07-12T08:54:23;98831.56;;;25.04;38.70
57574;BME280;43409;48.858;21.906;2022-07-12T08:56:49;98834.22;;;25.04;38.71
57574;BME280;43409;48.858;21.906;2022-07-12T08:59:20;98831.00;;;25.07;38.49
57574;BME280;43409;48.858;21.906;2022-07-12T09:01:50;98832.63;;;25.13;38.28
57574;BME280;43409;48.858;21.906;2022-07-12T09:04:21;98833.41;;;25.14;38.23
57574;BME280;43409;48.858;21.906;2022-07-12T09:06:47;98827.78;;;25.10;38.21
57574;BME280;43409;48.858;21.906;2022-07-12T09:09:34;98827.22;;;25.08;38.03
57574;BME280;43409;48.858;21.906;2022-07-12T09:12:01;98825.91;;;25.06;37.79
57574;BME280;43409;48.858;21.906;2022-07-12T09:14:26;98825.38;;;25.09;37.79
57574;BME280;43409;48.858;21.906;2022-07-12T09:17:21;98820.81;;;25.09;37.64
57574;BME280;43409;48.858;21.906;2022-07-12T09:19:56;98822.16;;;25.12;37.46
57574;BME280;43409;48.858;21.906;2022-07-12T09:22:22;98813.28;;;25.11;37.38
57574;BME280;43409;48.858;21.906;2022-07-12T09:24:47;98815.97;;;25.11;37.30
57574;BME280;43409;48.858;21.906;2022-07-12T09:27:14;98818.66;;;25.06;36.88
57574;BME280;43409;48.858;21.906;2022-07-12T09:29:49;98821.88;;;25.03;36.87
57574;BME280;43409;48.858;21.906;2022-07-12T09:32:15;98811.69;;;24.90;36.95
57574;BME280;43409;48.858;21.906;2022-07-12T09:35:00;98819.19;;;24.93;36.86
57574;BME280;43409;48.858;21.906;2022-07-12T09:37:44;98822.41;;;25.00;36.57
57574;BME280;43409;48.858;21.906;2022-07-12T09:40:11;98821.88;;;25.03;36.70
57574;BME280;43409;48.858;21.906;2022-07-12T09:42:38;98827.78;;;25.00;36.85
57574;BME280;43409;48.858;21.906;2022-07-12T09:45:06;98831.81;;;25.02;36.95
57574;BME280;43409;48.858;21.906;2022-07-12T09:47:32;98828.31;;;25.02;36.86
57574;BME280;43409;48.858;21.906;2022-07-12T09:49:58;98826.72;;;25.06;37.34
57574;BME280;43409;48.858;21.906;2022-07-12T09:52:28;98826.44;;;25.13;37.41
57574;BME280;43409;48.858;21.906;2022-07-12T09:54:55;98823.19;;;25.16;37.32
57574;BME280;43409;48.858;21.906;2022-07-12T09:57:26;98820.81;;;25.19;37.62
57574;BME280;43409;48.858;21.906;2022-07-12T09:59:52;98811.13;;;25.18;37.86
57574;BME280;43409;48.858;21.906;2022-07-12T10:02:18;98816.22;;;25.10;37.35
57574;BME280;43409;48.858;21.906;2022-07-12T10:04:46;98822.16;;;24.71;37.58
57574;BME280;43409;48.858;21.906;2022-07-12T10:07:11;98833.38;;;24.52;37.93
57574;BME280;43409;48.858;21.906;2022-07-12T10:09:48;98821.63;;;24.69;37.80
57574;BME280;43409;48.858;21.906;2022-07-12T10:12:16;98818.38;;;24.56;37.67
57574;BME280;43409;48.858;21.906;2022-07-12T10:14:43;98820.03;;;24.62;37.74
57574;BME280;43409;48.858;21.906;2022-07-12T10:17:10;98814.63;;;24.88;37.43
57574;BME280;43409;48.858;21.906;2022-07-12T10:19:36;98818.66;;;24.91;37.16
57574;BME280;43409;48.858;21.906;2022-07-12T10:22:06;98807.41;;;24.89;36.68
57574;BME280;43409;48.858;21.906;2022-07-12T10:29:43;98808.44;;;25.08;37.06
57574;BME280;43409;48.858;21.906;2022-07-12T10:32:33;98796.97;;;24.87;37.01
57574;BME280;43409;48.858;21.906;2022-07-12T10:35:05;98811.72;;;24.79;36.80
57574;BME280;43409;48.858;21.906;2022-07-12T10:37:31;98813.06;;;24.87;36.54
57574;BME280;43409;48.858;21.906;2022-07-12T10:42:39;98807.41;;;24.68;36.38
57574;BME280;43409;48.858;21.906;2022-07-12T10:45:12;98806.31;;;24.74;36.23
57574;BME280;43409;48.858;21.906;2022-07-12T10:47:58;98797.50;;;24.84;35.93
57574;BME280;43409;48.858;21.906;2022-07-12T10:58:41;98772.53;;;24.83;35.39
57574;BME280;43409;48.858;21.906;2022-07-12T11:06:09;98773.34;;;24.99;35.42
57574;BME280;43409;48.858;21.906;2022-07-12T11:11:16;98766.59;;;25.02;35.60
57574;BME280;43409;48.858;21.906;2022-07-12T11:13:42;98759.66;;;25.01;35.44
57574;BME280;43409;48.858;21.906;2022-07-12T11:16:07;98747.84;;;25.07;35.42
57574;BME280;43409;48.858;21.906;2022-07-12T11:18:36;98735.75;;;25.05;35.21
57574;BME280;43409;48.858;21.906;2022-07-12T11:21:02;98736.81;;;25.03;34.99
57574;BME280;43409;48.858;21.906;2022-07-12T11:23:29;98751.06;;;24.99;35.06
57574;BME280;43409;48.858;21.906;2022-07-12T11:26:02;98762.84;;;25.08;34.78
57574;BME280;43409;48.858;21.906;2022-07-12T11:28:29;98753.75;;;24.94;35.10
57574;BME280;43409;48.858;21.906;2022-07-12T11:31:04;98754.53;;;25.05;34.67
57574;BME280;43409;48.858;21.906;2022-07-12T11:33:32;98747.84;;;24.97;34.68
57574;BME280;43409;48.858;21.906;2022-07-12T11:35:59;98743.53;;;25.06;34.30
57574;BME280;43409;48.858;21.906;2022-07-12T11:38:25;98738.47;;;24.99;34.36
57574;BME280;43409;48.858;21.906;2022-07-12T11:40:58;98729.84;;;25.08;34.21
57574;BME280;43409;48.858;21.906;2022-07-12T11:43:25;98725.28;;;25.13;34.12
57574;BME280;43409;48.858;21.906;2022-07-12T11:45:52;98731.69;;;25.17;34.19
57574;BME280;43409;48.858;21.906;2022-07-12T11:48:18;98728.50;;;25.15;34.01
57574;BME280;43409;48.858;21.906;2022-07-12T11:50:44;98719.69;;;24.94;34.11
57574;BME280;43409;48.858;21.906;2022-07-12T11:53:37;98723.19;;;24.95;34.01
57574;BME280;43409;48.858;21.906;2022-07-12T11:56:05;98725.00;;;25.10;33.58
57574;BME280;43409;48.858;21.906;2022-07-12T11:58:35;98732.78;;;25.11;33.38
57574;BME280;43409;48.858;21.906;2022-07-12T12:01:04;98729.81;;;25.13;33.18
57574;BME280;43409;48.858;21.906;2022-07-12T12:03:42;98737.59;;;25.14;33.11
57574;BME280;43409;48.858;21.906;2022-07-12T12:06:08;98796.63;;;25.14;33.29
57574;BME280;43409;48.858;21.906;2022-07-12T12:08:34;98780.03;;;24.97;34.20
57574;BME280;43409;48.858;21.906;2022-07-12T12:10:59;98785.38;;;25.02;34.69
57574;BME280;43409;48.858;21.906;2022-07-12T12:13:29;98792.38;;;24.88;35.41
57574;BME280;43409;48.858;21.906;2022-07-12T12:16:00;98799.38;;;24.89;35.79
57574;BME280;43409;48.858;21.906;2022-07-12T12:18:37;98807.16;;;24.90;36.11
57574;BME280;43409;48.858;21.906;2022-07-12T12:21:11;98827.78;;;24.90;37.43
57574;BME280;43409;48.858;21.906;2022-07-12T12:23:38;98837.97;;;24.93;37.02
57574;BME280;43409;48.858;21.906;2022-07-12T12:26:18;98833.69;;;24.97;37.46
57574;BME280;43409;48.858;21.906;2022-07-12T12:28:54;98834.75;;;25.06;38.00
57574;BME280;43409;48.858;21.906;2022-07-12T12:31:21;98840.13;;;25.06;38.23
57574;BME280;43409;48.858;21.906;2022-07-12T12:33:52;98838.25;;;25.07;37.85
57574;BME280;43409;48.858;21.906;2022-07-12T12:36:28;98833.41;;;25.14;36.62
57574;BME280;43409;48.858;21.906;2022-07-12T12:41:21;98828.28;;;25.17;37.57
57574;BME280;43409;48.858;21.906;2022-07-12T12:43:59;98822.38;;;25.20;37.20
57574;BME280;43409;48.858;21.906;2022-07-12T12:46:57;98824.25;;;25.25;37.11
57574;BME280;43409;48.858;21.906;2022-07-12T12:49:49;98812.72;;;25.25;37.18
57574;BME280;43409;48.858;21.906;2022-07-12T12:52:15;98810.31;;;25.23;37.65
57574;BME280;43409;48.858;21.906;2022-07-12T12:54:41;98809.53;;;25.23;37.03
57574;BME280;43409;48.858;21.906;2022-07-12T12:57:07;98815.41;;;25.25;37.03
57574;BME280;43409;48.858;21.906;2022-07-12T12:59:33;98816.75;;;25.27;36.82
57574;BME280;43409;48.858;21.906;2022-07-12T13:01:59;98801.72;;;25.26;36.52
57574;BME280;43409;48.858;21.906;2022-07-12T13:04:31;98792.88;;;25.20;36.41
57574;BME280;43409;48.858;21.906;2022-07-12T13:06:57;98796.91;;;25.13;36.19
57574;BME280;43409;48.858;21.906;2022-07-12T13:09:23;98791.53;;;25.23;36.08
57574;BME280;43409;48.858;21.906;2022-07-12T13:11:49;98789.09;;;25.27;35.94
57574;BME280;43409;48.858;21.906;2022-07-12T13:14:15;98793.16;;;25.29;35.82
57574;BME280;43409;48.858;21.906;2022-07-12T13:16:40;98781.34;;;25.30;35.81
57574;BME280;43409;48.858;21.906;2022-07-12T13:19:06;98776.25;;;25.29;35.96